sensor_id;sensor_type;location;lat;lon;timestamp;temperature;humidity
23120;DHT22;11729;50.836;4.330;2023-07-22T00:01:48;17.50;99.90
23120;DHT22;11729;50.836;4.330;2023-07-22T00:04:14;17.50;99.90
23120;DHT22;11729;50.836;4.330;2023-07-22T00:06:39;17.40;99.90
23120;DHT22;11729;50.836;4.330;2023-07-22T00:09:05;17.40;99.90
23120;DHT22;11729;50.836;4.330;2023-07-22T00:11:31;17.30;99.90
23120;DHT22;11729;50.836;4.330;2023-07-22T00:13:57;17.30;99.90
23120;DHT22;11729;50.836;4.330;2023-07-22T00:16:23;17.30;99.90
23120;DHT22;11729;50.836;4.330;2023-07-22T00:18:49;17.30;99.90
23120;DHT22;11729;50.836;4.330;2023-07-22T00:21:15;17.20;99.90
23120;DHT22;11729;50.836;4.330;2023-07-22T00:23:40;17.20;99.90
23120;DHT22;11729;50.836;4.330;2023-07-22T00:26:06;17.20;99.90
23120;DHT22;11729;50.836;4.330;2023-07-22T00:28:31;17.20;99.90
23120;DHT22;11729;50.836;4.330;2023-07-22T00:30:57;17.10;99.90
23120;DHT22;11729;50.836;4.330;2023-07-22T00:33:23;17.10;99.90
23120;DHT22;11729;50.836;4.330;2023-07-22T00:35:52;17.10;99.90
23120;DHT22;11729;50.836;4.330;2023-07-22T00:38:18;17.10;99.90
23120;DHT22;11729;50.836;4.330;2023-07-22T00:40:44;17.10;99.90
23120;DHT22;11729;50.836;4.330;2023-07-22T00:43:10;17.00;99.90
23120;DHT22;11729;50.836;4.330;2023-07-22T00:45:36;17.00;99.90
23120;DHT22;11729;50.836;4.330;2023-07-22T00:48:03;17.00;99.90
23120;DHT22;11729;50.836;4.330;2023-07-22T00:50:31;17.00;99.90
23120;DHT22;11729;50.836;4.330;2023-07-22T00:52:58;17.00;99.90
23120;DHT22;11729;50.836;4.330;2023-07-22T00:55:25;16.90;99.90
23120;DHT22;11729;50.836;4.330;2023-07-22T00:57:51;16.90;99.90
23120;DHT22;11729;50.836;4.330;2023-07-22T01:00:17;16.90;99.90
23120;DHT22;11729;50.836;4.330;2023-07-22T01:02:44;17.00;99.90
23120;DHT22;11729;50.836;4.330;2023-07-22T01:05:10;17.00;99.90
23120;DHT22;11729;50.836;4.330;2023-07-22T01:07:36;17.00;99.90
23120;DHT22;11729;50.836;4.330;2023-07-22T01:10:04;17.00;99.90
23120;DHT22;11729;50.836;4.330;2023-07-22T01:12:31;17.00;99.90
23120;DHT22;11729;50.836;4.330;2023-07-22T01:14:57;16.80;99.90
23120;DHT22;11729;50.836;4.330;2023-07-22T01:17:23;16.80;99.90
23120;DHT22;11729;50.836;4.330;2023-07-22T01:19:49;16.70;99.90
23120;DHT22;11729;50.836;4.330;2023-07-22T01:22:16;16.70;99.90
23120;DHT22;11729;50.836;4.330;2023-07-22T01:24:42;16.70;99.90
23120;DHT22;11729;50.836;4.330;2023-07-22T01:27:08;16.60;99.90
23120;DHT22;11729;50.836;4.330;2023-07-22T01:29:36;16.70;99.90
23120;DHT22;11729;50.836;4.330;2023-07-22T01:32:02;16.60;99.90
23120;DHT22;11729;50.836;4.330;2023-07-22T01:34:27;16.50;99.90
23120;DHT22;11729;50.836;4.330;2023-07-22T01:36:53;16.50;99.90
23120;DHT22;11729;50.836;4.330;2023-07-22T01:39:19;16.40;99.90
23120;DHT22;11729;50.836;4.330;2023-07-22T01:41:45;16.40;99.90
23120;DHT22;11729;50.836;4.330;2023-07-22T01:44:11;16.40;99.90
23120;DHT22;11729;50.836;4.330;2023-07-22T01:46:37;16.40;99.90
23120;DHT22;11729;50.836;4.330;2023-07-22T01:49:09;16.30;99.90
23120;DHT22;11729;50.836;4.330;2023-07-22T01:51:35;16.20;99.90
23120;DHT22;11729;50.836;4.330;2023-07-22T01:54:03;16.20;99.90
23120;DHT22;11729;50.836;4.330;2023-07-22T01:56:29;16.20;99.90
23120;DHT22;11729;50.836;4.330;2023-07-22T01:58:55;16.20;99.90
23120;DHT22;11729;50.836;4.330;2023-07-22T02:01:20;16.20;99.90
23120;DHT22;11729;50.836;4.330;2023-07-22T02:03:46;16.20;99.90
23120;DHT22;11729;50.836;4.330;2023-07-22T02:06:12;16.10;99.90
23120;DHT22;11729;50.836;4.330;2023-07-22T02:08:38;16.10;99.90
23120;DHT22;11729;50.836;4.330;2023-07-22T02:11:05;16.10;99.90
23120;DHT22;11729;50.836;4.330;2023-07-22T02:13:32;16.10;99.90
23120;DHT22;11729;50.836;4.330;2023-07-22T02:15:59;16.10;99.90
23120;DHT22;11729;50.836;4.330;2023-07-22T02:18:25;16.10;99.90
23120;DHT22;11729;50.836;4.330;2023-07-22T02:20:50;16.10;99.90
23120;DHT22;11729;50.836;4.330;2023-07-22T02:23:16;16.00;99.90
23120;DHT22;11729;50.836;4.330;2023-07-22T02:25:43;16.00;99.90
23120;DHT22;11729;50.836;4.330;2023-07-22T02:28:09;16.00;99.90
23120;DHT22;11729;50.836;4.330;2023-07-22T02:30:36;15.80;99.90
23120;DHT22;11729;50.836;4.330;2023-07-22T02:33:02;15.80;99.90
23120;DHT22;11729;50.836;4.330;2023-07-22T02:35:28;15.90;99.90
23120;DHT22;11729;50.836;4.330;2023-07-22T02:37:54;15.70;99.90
23120;DHT22;11729;50.836;4.330;2023-07-22T02:40:20;15.70;99.90
23120;DHT22;11729;50.836;4.330;2023-07-22T02:42:46;15.70;99.90
23120;DHT22;11729;50.836;4.330;2023-07-22T02:45:12;15.80;99.90
23120;DHT22;11729;50.836;4.330;2023-07-22T02:47:38;15.80;99.90
23120;DHT22;11729;50.836;4.330;2023-07-22T02:50:05;15.70;99.90
23120;DHT22;11729;50.836;4.330;2023-07-22T02:52:31;15.60;99.90
23120;DHT22;11729;50.836;4.330;2023-07-22T02:57:30;15.60;99.90
23120;DHT22;11729;50.836;4.330;2023-07-22T02:59:56;15.60;99.90
23120;DHT22;11729;50.836;4.330;2023-07-22T03:02:22;15.50;99.90
23120;DHT22;11729;50.836;4.330;2023-07-22T03:04:47;15.60;99.90
23120;DHT22;11729;50.836;4.330;2023-07-22T03:07:13;15.50;99.90
23120;DHT22;11729;50.836;4.330;2023-07-22T03:09:39;15.60;99.90
23120;DHT22;11729;50.836;4.330;2023-07-22T03:12:04;15.50;99.90
23120;DHT22;11729;50.836;4.330;2023-07-22T03:14:30;15.50;99.90
23120;DHT22;11729;50.836;4.330;2023-07-22T03:17:02;15.40;99.90
23120;DHT22;11729;50.836;4.330;2023-07-22T03:19:27;15.40;99.90
23120;DHT22;11729;50.836;4.330;2023-07-22T03:21:53;15.30;99.90
23120;DHT22;11729;50.836;4.330;2023-07-22T03:24:18;15.40;99.90
23120;DHT22;11729;50.836;4.330;2023-07-22T03:26:44;15.40;99.90
23120;DHT22;11729;50.836;4.330;2023-07-22T03:29:10;15.40;99.90
23120;DHT22;11729;50.836;4.330;2023-07-22T03:31:36;15.30;99.90
23120;DHT22;11729;50.836;4.330;2023-07-22T03:34:01;15.20;99.90
23120;DHT22;11729;50.836;4.330;2023-07-22T03:36:27;15.10;99.90
23120;DHT22;11729;50.836;4.330;2023-07-22T03:38:52;15.20;99.90
23120;DHT22;11729;50.836;4.330;2023-07-22T03:41:18;15.30;99.90
23120;DHT22;11729;50.836;4.330;2023-07-22T03:43:44;15.30;99.90
23120;DHT22;11729;50.836;4.330;2023-07-22T03:46:10;15.40;99.90
23120;DHT22;11729;50.836;4.330;2023-07-22T03:48:35;15.30;99.90
23120;DHT22;11729;50.836;4.330;2023-07-22T03:51:01;15.30;99.90
23120;DHT22;11729;50.836;4.330;2023-07-22T03:53:27;15.40;99.90
23120;DHT22;11729;50.836;4.330;2023-07-22T03:55:52;15.40;99.90
23120;DHT22;11729;50.836;4.330;2023-07-22T03:58:19;15.50;99.90
23120;DHT22;11729;50.836;4.330;2023-07-22T04:00:48;15.50;99.90
23120;DHT22;11729;50.836;4.330;2023-07-22T04:03:14;15.40;99.90
23120;DHT22;11729;50.836;4.330;2023-07-22T04:05:40;15.40;99.90
23120;DHT22;11729;50.836;4.330;2023-07-22T04:08:05;15.40;99.90
23120;DHT22;11729;50.836;4.330;2023-07-22T04:10:31;15.40;99.90
23120;DHT22;11729;50.836;4.330;2023-07-22T04:12:57;15.50;99.90
23120;DHT22;11729;50.836;4.330;2023-07-22T04:15:22;15.50;99.90
23120;DHT22;11729;50.836;4.330;2023-07-22T04:17:48;15.60;99.90
23120;DHT22;11729;50.836;4.330;2023-07-22T04:20:14;15.70;99.90
23120;DHT22;11729;50.836;4.330;2023-07-22T04:22:40;15.70;99.90
23120;DHT22;11729;50.836;4.330;2023-07-22T04:25:07;15.70;99.90
23120;DHT22;11729;50.836;4.330;2023-07-22T04:27:32;15.70;99.90
23120;DHT22;11729;50.836;4.330;2023-07-22T04:29:58;15.70;99.90
23120;DHT22;11729;50.836;4.330;2023-07-22T04:32:24;15.90;99.90
23120;DHT22;11729;50.836;4.330;2023-07-22T04:34:49;15.90;99.90
23120;DHT22;11729;50.836;4.330;2023-07-22T04:37:15;16.00;99.90
23120;DHT22;11729;50.836;4.330;2023-07-22T04:39:42;16.00;99.90
23120;DHT22;11729;50.836;4.330;2023-07-22T04:42:08;16.10;99.90
23120;DHT22;11729;50.836;4.330;2023-07-22T04:44:34;16.20;99.90
23120;DHT22;11729;50.836;4.330;2023-07-22T04:46:59;16.20;99.90
23120;DHT22;11729;50.836;4.330;2023-07-22T04:49:25;16.20;99.90
23120;DHT22;11729;50.836;4.330;2023-07-22T04:51:51;16.30;99.90
23120;DHT22;11729;50.836;4.330;2023-07-22T04:54:16;16.30;99.90
23120;DHT22;11729;50.836;4.330;2023-07-22T04:56:43;16.30;99.90
23120;DHT22;11729;50.836;4.330;2023-07-22T04:59:09;16.40;99.90
23120;DHT22;11729;50.836;4.330;2023-07-22T05:01:35;16.30;99.90
23120;DHT22;11729;50.836;4.330;2023-07-22T05:04:01;16.40;99.90
23120;DHT22;11729;50.836;4.330;2023-07-22T05:06:28;16.40;99.90
23120;DHT22;11729;50.836;4.330;2023-07-22T05:08:54;16.40;99.90
23120;DHT22;11729;50.836;4.330;2023-07-22T05:11:19;16.30;99.90
23120;DHT22;11729;50.836;4.330;2023-07-22T05:13:45;16.30;99.90
23120;DHT22;11729;50.836;4.330;2023-07-22T05:16:10;16.30;99.90
23120;DHT22;11729;50.836;4.330;2023-07-22T05:18:37;16.30;99.90
23120;DHT22;11729;50.836;4.330;2023-07-22T05:21:04;16.40;99.90
23120;DHT22;11729;50.836;4.330;2023-07-22T05:23:29;16.40;99.90
23120;DHT22;11729;50.836;4.330;2023-07-22T05:25:55;16.40;99.90
23120;DHT22;11729;50.836;4.330;2023-07-22T05:28:21;16.40;99.90
23120;DHT22;11729;50.836;4.330;2023-07-22T05:30:46;16.50;99.90
23120;DHT22;11729;50.836;4.330;2023-07-22T05:33:12;16.60;99.90
23120;DHT22;11729;50.836;4.330;2023-07-22T05:35:38;16.70;99.90
23120;DHT22;11729;50.836;4.330;2023-07-22T05:38:03;16.90;99.90
23120;DHT22;11729;50.836;4.330;2023-07-22T05:40:30;17.20;99.90
23120;DHT22;11729;50.836;4.330;2023-07-22T05:42:56;17.40;99.90
23120;DHT22;11729;50.836;4.330;2023-07-22T05:45:22;17.60;99.90
23120;DHT22;11729;50.836;4.330;2023-07-22T05:47:47;17.90;99.90
23120;DHT22;11729;50.836;4.330;2023-07-22T05:50:13;17.90;99.90
23120;DHT22;11729;50.836;4.330;2023-07-22T05:52:39;18.20;99.90
23120;DHT22;11729;50.836;4.330;2023-07-22T05:55:05;18.40;99.90
23120;DHT22;11729;50.836;4.330;2023-07-22T05:57:31;18.40;99.90
23120;DHT22;11729;50.836;4.330;2023-07-22T05:59:56;18.50;99.90
23120;DHT22;11729;50.836;4.330;2023-07-22T06:02:22;18.60;99.90
23120;DHT22;11729;50.836;4.330;2023-07-22T06:04:48;18.70;99.90
23120;DHT22;11729;50.836;4.330;2023-07-22T06:07:13;18.90;99.90
23120;DHT22;11729;50.836;4.330;2023-07-22T06:09:39;19.00;99.90
23120;DHT22;11729;50.836;4.330;2023-07-22T06:12:05;19.10;99.90
23120;DHT22;11729;50.836;4.330;2023-07-22T06:14:31;19.10;99.90
23120;DHT22;11729;50.836;4.330;2023-07-22T06:16:57;19.00;99.90
23120;DHT22;11729;50.836;4.330;2023-07-22T06:19:23;19.00;99.90
23120;DHT22;11729;50.836;4.330;2023-07-22T06:21:51;18.90;99.90
23120;DHT22;11729;50.836;4.330;2023-07-22T06:24:17;18.80;99.90
23120;DHT22;11729;50.836;4.330;2023-07-22T06:26:43;18.80;99.90
23120;DHT22;11729;50.836;4.330;2023-07-22T06:29:09;18.90;99.90
23120;DHT22;11729;50.836;4.330;2023-07-22T06:31:35;19.00;99.90
23120;DHT22;11729;50.836;4.330;2023-07-22T06:34:00;19.00;99.90
23120;DHT22;11729;50.836;4.330;2023-07-22T06:36:26;19.00;99.90
23120;DHT22;11729;50.836;4.330;2023-07-22T06:38:52;18.90;99.90
23120;DHT22;11729;50.836;4.330;2023-07-22T06:41:18;19.00;99.90
23120;DHT22;11729;50.836;4.330;2023-07-22T06:43:44;18.90;99.90
23120;DHT22;11729;50.836;4.330;2023-07-22T06:46:10;18.70;99.90
23120;DHT22;11729;50.836;4.330;2023-07-22T06:48:36;18.70;99.90
23120;DHT22;11729;50.836;4.330;2023-07-22T06:51:01;18.80;99.90
23120;DHT22;11729;50.836;4.330;2023-07-22T06:53:27;18.80;99.90
23120;DHT22;11729;50.836;4.330;2023-07-22T06:55:52;18.80;99.90
23120;DHT22;11729;50.836;4.330;2023-07-22T06:58:19;18.80;99.90
23120;DHT22;11729;50.836;4.330;2023-07-22T07:00:45;18.80;99.90
23120;DHT22;11729;50.836;4.330;2023-07-22T07:03:11;18.80;99.90
23120;DHT22;11729;50.836;4.330;2023-07-22T07:05:37;19.00;99.90
23120;DHT22;11729;50.836;4.330;2023-07-22T07:08:06;19.20;99.90
23120;DHT22;11729;50.836;4.330;2023-07-22T07:10:36;19.40;99.90
23120;DHT22;11729;50.836;4.330;2023-07-22T07:13:02;19.70;99.90
23120;DHT22;11729;50.836;4.330;2023-07-22T07:15:28;20.20;99.90
23120;DHT22;11729;50.836;4.330;2023-07-22T07:17:54;20.80;99.90
23120;DHT22;11729;50.836;4.330;2023-07-22T07:20:20;21.60;99.90
23120;DHT22;11729;50.836;4.330;2023-07-22T07:22:45;22.10;99.90
23120;DHT22;11729;50.836;4.330;2023-07-22T07:25:11;22.70;99.90
23120;DHT22;11729;50.836;4.330;2023-07-22T07:27:37;23.40;99.90
23120;DHT22;11729;50.836;4.330;2023-07-22T07:30:03;23.70;99.90
23120;DHT22;11729;50.836;4.330;2023-07-22T07:32:28;23.50;99.90
23120;DHT22;11729;50.836;4.330;2023-07-22T07:34:54;23.20;99.90
23120;DHT22;11729;50.836;4.330;2023-07-22T07:37:19;22.90;99.90
23120;DHT22;11729;50.836;4.330;2023-07-22T07:39:45;22.50;99.90
23120;DHT22;11729;50.836;4.330;2023-07-22T07:42:11;22.10;99.90
23120;DHT22;11729;50.836;4.330;2023-07-22T07:44:36;22.40;99.90
23120;DHT22;11729;50.836;4.330;2023-07-22T07:47:02;22.60;99.90
23120;DHT22;11729;50.836;4.330;2023-07-22T07:49:28;22.60;99.90
23120;DHT22;11729;50.836;4.330;2023-07-22T07:51:54;22.50;99.90
23120;DHT22;11729;50.836;4.330;2023-07-22T07:54:20;22.40;99.90
23120;DHT22;11729;50.836;4.330;2023-07-22T07:56:45;22.70;99.90
23120;DHT22;11729;50.836;4.330;2023-07-22T07:59:11;22.90;99.90
23120;DHT22;11729;50.836;4.330;2023-07-22T08:01:37;23.30;99.90
23120;DHT22;11729;50.836;4.330;2023-07-22T08:04:09;23.20;99.90
23120;DHT22;11729;50.836;4.330;2023-07-22T08:06:35;23.00;99.90
23120;DHT22;11729;50.836;4.330;2023-07-22T08:09:03;22.90;99.90
23120;DHT22;11729;50.836;4.330;2023-07-22T08:11:30;22.90;99.90
23120;DHT22;11729;50.836;4.330;2023-07-22T08:13:56;23.00;99.90
23120;DHT22;11729;50.836;4.330;2023-07-22T08:16:21;23.10;99.90
23120;DHT22;11729;50.836;4.330;2023-07-22T08:18:48;23.30;99.90
23120;DHT22;11729;50.836;4.330;2023-07-22T08:21:13;23.20;99.90
23120;DHT22;11729;50.836;4.330;2023-07-22T08:23:39;23.40;99.90
23120;DHT22;11729;50.836;4.330;2023-07-22T08:26:05;23.60;99.90
23120;DHT22;11729;50.836;4.330;2023-07-22T08:28:31;24.10;99.90
23120;DHT22;11729;50.836;4.330;2023-07-22T08:30:57;24.00;99.90
23120;DHT22;11729;50.836;4.330;2023-07-22T08:33:24;24.00;99.90
23120;DHT22;11729;50.836;4.330;2023-07-22T08:35:51;24.40;99.90
23120;DHT22;11729;50.836;4.330;2023-07-22T08:38:17;24.20;99.90
23120;DHT22;11729;50.836;4.330;2023-07-22T08:40:43;24.10;99.90
23120;DHT22;11729;50.836;4.330;2023-07-22T08:43:10;24.00;99.90
23120;DHT22;11729;50.836;4.330;2023-07-22T08:45:38;23.70;99.90
23120;DHT22;11729;50.836;4.330;2023-07-22T08:48:06;23.90;99.90
23120;DHT22;11729;50.836;4.330;2023-07-22T08:53:19;25.30;99.90
23120;DHT22;11729;50.836;4.330;2023-07-22T08:55:45;25.90;99.90
23120;DHT22;11729;50.836;4.330;2023-07-22T08:58:13;26.30;99.90
23120;DHT22;11729;50.836;4.330;2023-07-22T09:00:40;26.30;99.90
23120;DHT22;11729;50.836;4.330;2023-07-22T09:03:06;26.50;99.90
23120;DHT22;11729;50.836;4.330;2023-07-22T09:05:33;26.70;99.90
23120;DHT22;11729;50.836;4.330;2023-07-22T09:08:01;27.10;99.90
23120;DHT22;11729;50.836;4.330;2023-07-22T09:10:28;28.20;97.90
23120;DHT22;11729;50.836;4.330;2023-07-22T09:12:55;28.70;96.10
23120;DHT22;11729;50.836;4.330;2023-07-22T09:15:21;28.50;93.00
23120;DHT22;11729;50.836;4.330;2023-07-22T09:17:49;28.60;92.90
23120;DHT22;11729;50.836;4.330;2023-07-22T09:20:15;29.10;92.40
23120;DHT22;11729;50.836;4.330;2023-07-22T09:22:45;29.60;89.90
23120;DHT22;11729;50.836;4.330;2023-07-22T09:25:19;29.30;88.00
23120;DHT22;11729;50.836;4.330;2023-07-22T09:27:49;29.30;88.80
23120;DHT22;11729;50.836;4.330;2023-07-22T09:30:31;29.20;88.10
23120;DHT22;11729;50.836;4.330;2023-07-22T09:33:04;28.90;86.30
23120;DHT22;11729;50.836;4.330;2023-07-22T09:35:50;28.60;88.00
23120;DHT22;11729;50.836;4.330;2023-07-22T09:38:33;29.30;85.40
23120;DHT22;11729;50.836;4.330;2023-07-22T09:40:59;29.00;84.70
23120;DHT22;11729;50.836;4.330;2023-07-22T09:43:25;28.50;79.50
23120;DHT22;11729;50.836;4.330;2023-07-22T09:45:51;28.30;79.30
23120;DHT22;11729;50.836;4.330;2023-07-22T09:48:17;28.10;80.00
23120;DHT22;11729;50.836;4.330;2023-07-22T09:50:43;28.00;82.10
23120;DHT22;11729;50.836;4.330;2023-07-22T09:53:09;28.70;82.10
23120;DHT22;11729;50.836;4.330;2023-07-22T09:55:39;29.20;79.00
23120;DHT22;11729;50.836;4.330;2023-07-22T09:58:05;30.10;78.90
23120;DHT22;11729;50.836;4.330;2023-07-22T10:00:33;30.60;75.50
23120;DHT22;11729;50.836;4.330;2023-07-22T10:03:00;30.80;74.10
23120;DHT22;11729;50.836;4.330;2023-07-22T10:05:26;30.80;75.10
23120;DHT22;11729;50.836;4.330;2023-07-22T10:07:57;30.90;68.60
23120;DHT22;11729;50.836;4.330;2023-07-22T10:12:51;31.80;69.40
23120;DHT22;11729;50.836;4.330;2023-07-22T10:15:16;31.40;66.70
23120;DHT22;11729;50.836;4.330;2023-07-22T10:17:45;31.20;64.70
23120;DHT22;11729;50.836;4.330;2023-07-22T10:20:12;30.80;64.30
23120;DHT22;11729;50.836;4.330;2023-07-22T10:22:44;29.90;62.50
23120;DHT22;11729;50.836;4.330;2023-07-22T10:25:14;29.80;63.30
23120;DHT22;11729;50.836;4.330;2023-07-22T10:27:40;29.80;63.50
23120;DHT22;11729;50.836;4.330;2023-07-22T10:30:08;30.20;61.50
23120;DHT22;11729;50.836;4.330;2023-07-22T10:32:45;30.30;62.10
23120;DHT22;11729;50.836;4.330;2023-07-22T10:35:17;30.40;61.50
23120;DHT22;11729;50.836;4.330;2023-07-22T10:37:46;30.90;60.60
23120;DHT22;11729;50.836;4.330;2023-07-22T10:45:33;30.80;60.50
23120;DHT22;11729;50.836;4.330;2023-07-22T10:48:02;31.40;60.70
23120;DHT22;11729;50.836;4.330;2023-07-22T10:50:44;31.40;58.60
23120;DHT22;11729;50.836;4.330;2023-07-22T10:53:32;30.10;60.00
23120;DHT22;11729;50.836;4.330;2023-07-22T10:56:12;28.40;64.60
23120;DHT22;11729;50.836;4.330;2023-07-22T11:01:33;28.50;67.00
23120;DHT22;11729;50.836;4.330;2023-07-22T11:14:37;29.00;66.50
23120;DHT22;11729;50.836;4.330;2023-07-22T11:17:04;29.40;64.20
23120;DHT22;11729;50.836;4.330;2023-07-22T11:19:31;29.60;63.00
23120;DHT22;11729;50.836;4.330;2023-07-22T11:21:58;29.10;63.20
23120;DHT22;11729;50.836;4.330;2023-07-22T11:24:24;29.10;64.90
23120;DHT22;11729;50.836;4.330;2023-07-22T11:26:51;29.20;63.60
23120;DHT22;11729;50.836;4.330;2023-07-22T11:29:17;28.70;63.70
23120;DHT22;11729;50.836;4.330;2023-07-22T11:31:45;29.00;63.70
23120;DHT22;11729;50.836;4.330;2023-07-22T11:34:19;28.70;63.80
23120;DHT22;11729;50.836;4.330;2023-07-22T11:36:47;28.40;65.30
23120;DHT22;11729;50.836;4.330;2023-07-22T11:39:14;28.30;66.00
23120;DHT22;11729;50.836;4.330;2023-07-22T11:41:41;28.20;64.20
23120;DHT22;11729;50.836;4.330;2023-07-22T11:44:08;28.10;66.00
23120;DHT22;11729;50.836;4.330;2023-07-22T11:46:36;27.50;66.70
23120;DHT22;11729;50.836;4.330;2023-07-22T11:49:02;27.20;70.10
23120;DHT22;11729;50.836;4.330;2023-07-22T11:51:28;28.30;69.60
23120;DHT22;11729;50.836;4.330;2023-07-22T11:53:54;29.00;64.60
23120;DHT22;11729;50.836;4.330;2023-07-22T11:56:21;29.30;61.50
23120;DHT22;11729;50.836;4.330;2023-07-22T11:58:55;29.80;63.10
23120;DHT22;11729;50.836;4.330;2023-07-22T12:01:21;30.00;62.50
23120;DHT22;11729;50.836;4.330;2023-07-22T12:03:47;30.30;61.00
23120;DHT22;11729;50.836;4.330;2023-07-22T12:06:14;31.30;59.70
23120;DHT22;11729;50.836;4.330;2023-07-22T12:08:48;31.40;57.50
23120;DHT22;11729;50.836;4.330;2023-07-22T12:11:33;31.30;57.50
23120;DHT22;11729;50.836;4.330;2023-07-22T12:14:12;30.90;57.00
23120;DHT22;11729;50.836;4.330;2023-07-22T12:16:41;30.60;59.50
23120;DHT22;11729;50.836;4.330;2023-07-22T12:19:08;31.00;58.10
23120;DHT22;11729;50.836;4.330;2023-07-22T12:21:34;31.10;55.50
23120;DHT22;11729;50.836;4.330;2023-07-22T12:24:01;30.40;57.70
23120;DHT22;11729;50.836;4.330;2023-07-22T12:26:27;29.70;58.00
23120;DHT22;11729;50.836;4.330;2023-07-22T12:28:53;29.70;59.40
23120;DHT22;11729;50.836;4.330;2023-07-22T12:31:18;30.50;58.50
23120;DHT22;11729;50.836;4.330;2023-07-22T12:33:44;30.40;57.10
23120;DHT22;11729;50.836;4.330;2023-07-22T12:36:11;30.40;57.70
23120;DHT22;11729;50.836;4.330;2023-07-22T12:38:36;30.50;57.20
23120;DHT22;11729;50.836;4.330;2023-07-22T12:41:02;30.70;56.40
23120;DHT22;11729;50.836;4.330;2023-07-22T12:43:28;31.20;58.90
23120;DHT22;11729;50.836;4.330;2023-07-22T12:45:54;32.30;55.70
23120;DHT22;11729;50.836;4.330;2023-07-22T12:48:20;32.30;53.10
23120;DHT22;11729;50.836;4.330;2023-07-22T12:50:46;32.30;52.50
23120;DHT22;11729;50.836;4.330;2023-07-22T12:53:14;32.30;53.40
23120;DHT22;11729;50.836;4.330;2023-07-22T12:55:40;31.50;53.70
23120;DHT22;11729;50.836;4.330;2023-07-22T12:58:05;30.40;54.10
23120;DHT22;11729;50.836;4.330;2023-07-22T13:00:31;29.60;57.10
23120;DHT22;11729;50.836;4.330;2023-07-22T13:02:57;29.20;57.10
23120;DHT22;11729;50.836;4.330;2023-07-22T13:05:23;28.80;57.80
23120;DHT22;11729;50.836;4.330;2023-07-22T13:07:49;28.10;59.20
23120;DHT22;11729;50.836;4.330;2023-07-22T13:10:15;27.80;59.90
23120;DHT22;11729;50.836;4.330;2023-07-22T13:12:43;27.10;61.90
23120;DHT22;11729;50.836;4.330;2023-07-22T13:15:09;27.00;65.10
23120;DHT22;11729;50.836;4.330;2023-07-22T13:17:35;27.00;62.80
23120;DHT22;11729;50.836;4.330;2023-07-22T13:20:02;27.00;63.00
23120;DHT22;11729;50.836;4.330;2023-07-22T13:22:32;26.90;64.10
23120;DHT22;11729;50.836;4.330;2023-07-22T13:24:58;26.60;64.80
23120;DHT22;11729;50.836;4.330;2023-07-22T13:27:23;26.50;64.40
23120;DHT22;11729;50.836;4.330;2023-07-22T13:29:49;26.40;65.00
23120;DHT22;11729;50.836;4.330;2023-07-22T13:32:14;26.80;65.30
23120;DHT22;11729;50.836;4.330;2023-07-22T13:34:40;26.90;65.30
23120;DHT22;11729;50.836;4.330;2023-07-22T13:37:06;26.60;65.90
23120;DHT22;11729;50.836;4.330;2023-07-22T13:39:32;26.40;67.80
23120;DHT22;11729;50.836;4.330;2023-07-22T13:41:57;26.50;67.80
23120;DHT22;11729;50.836;4.330;2023-07-22T13:44:23;26.50;68.10
23120;DHT22;11729;50.836;4.330;2023-07-22T13:46:48;26.50;68.00
23120;DHT22;11729;50.836;4.330;2023-07-22T13:49:14;26.40;67.50
23120;DHT22;11729;50.836;4.330;2023-07-22T13:51:40;25.80;67.70
23120;DHT22;11729;50.836;4.330;2023-07-22T13:54:07;25.20;70.00
23120;DHT22;11729;50.836;4.330;2023-07-22T13:56:32;24.80;72.40
23120;DHT22;11729;50.836;4.330;2023-07-22T13:59:00;24.40;76.10
23120;DHT22;11729;50.836;4.330;2023-07-22T14:01:26;24.10;75.10
23120;DHT22;11729;50.836;4.330;2023-07-22T14:03:53;23.90;77.50
23120;DHT22;11729;50.836;4.330;2023-07-22T14:06:19;23.70;78.30
23120;DHT22;11729;50.836;4.330;2023-07-22T14:08:44;23.50;80.00
23120;DHT22;11729;50.836;4.330;2023-07-22T14:11:10;23.10;82.30
23120;DHT22;11729;50.836;4.330;2023-07-22T14:13:35;22.90;84.50
23120;DHT22;11729;50.836;4.330;2023-07-22T14:16:02;22.80;85.60
23120;DHT22;11729;50.836;4.330;2023-07-22T14:18:28;22.70;88.10
23120;DHT22;11729;50.836;4.330;2023-07-22T14:20:54;22.50;89.20
23120;DHT22;11729;50.836;4.330;2023-07-22T14:23:20;22.50;90.30
23120;DHT22;11729;50.836;4.330;2023-07-22T14:25:45;22.70;90.60
23120;DHT22;11729;50.836;4.330;2023-07-22T14:28:11;22.80;90.40
23120;DHT22;11729;50.836;4.330;2023-07-22T14:30:37;23.00;90.50
23120;DHT22;11729;50.836;4.330;2023-07-22T14:33:02;23.20;90.30
23120;DHT22;11729;50.836;4.330;2023-07-22T14:35:28;23.50;90.00
23120;DHT22;11729;50.836;4.330;2023-07-22T14:37:54;23.70;89.40
23120;DHT22;11729;50.836;4.330;2023-07-22T14:40:19;24.00;89.90
23120;DHT22;11729;50.836;4.330;2023-07-22T14:42:45;24.10;89.60
23120;DHT22;11729;50.836;4.330;2023-07-22T14:45:11;24.10;88.80
23120;DHT22;11729;50.836;4.330;2023-07-22T14:47:37;24.00;89.50
23120;DHT22;11729;50.836;4.330;2023-07-22T14:50:03;23.90;89.60
23120;DHT22;11729;50.836;4.330;2023-07-22T14:52:29;23.90;90.30
23120;DHT22;11729;50.836;4.330;2023-07-22T14:54:55;24.10;90.40
23120;DHT22;11729;50.836;4.330;2023-07-22T14:57:20;24.40;89.10
23120;DHT22;11729;50.836;4.330;2023-07-22T14:59:46;24.50;89.70
23120;DHT22;11729;50.836;4.330;2023-07-22T15:02:12;24.80;89.30
23120;DHT22;11729;50.836;4.330;2023-07-22T15:04:38;24.80;88.70
23120;DHT22;11729;50.836;4.330;2023-07-22T15:07:03;24.80;89.10
23120;DHT22;11729;50.836;4.330;2023-07-22T15:09:29;25.00;87.60
23120;DHT22;11729;50.836;4.330;2023-07-22T15:11:56;25.40;88.10
23120;DHT22;11729;50.836;4.330;2023-07-22T15:14:22;25.50;87.30
23120;DHT22;11729;50.836;4.330;2023-07-22T15:16:48;25.70;86.20
23120;DHT22;11729;50.836;4.330;2023-07-22T15:19:13;25.50;87.10
23120;DHT22;11729;50.836;4.330;2023-07-22T15:21:39;25.10;88.40
23120;DHT22;11729;50.836;4.330;2023-07-22T15:24:05;25.00;86.70
23120;DHT22;11729;50.836;4.330;2023-07-22T15:26:30;24.70;86.20
23120;DHT22;11729;50.836;4.330;2023-07-22T15:28:56;24.50;87.10
23120;DHT22;11729;50.836;4.330;2023-07-22T15:31:22;24.50;89.00
23120;DHT22;11729;50.836;4.330;2023-07-22T15:33:48;24.50;86.70
23120;DHT22;11729;50.836;4.330;2023-07-22T15:36:14;24.10;87.80
23120;DHT22;11729;50.836;4.330;2023-07-22T15:38:40;24.00;89.60
23120;DHT22;11729;50.836;4.330;2023-07-22T15:41:06;23.90;90.00
23120;DHT22;11729;50.836;4.330;2023-07-22T15:43:32;23.90;89.20
23120;DHT22;11729;50.836;4.330;2023-07-22T15:45:58;23.90;89.30
23120;DHT22;11729;50.836;4.330;2023-07-22T15:48:24;23.80;89.40
23120;DHT22;11729;50.836;4.330;2023-07-22T15:50:50;23.90;89.20
23120;DHT22;11729;50.836;4.330;2023-07-22T15:53:16;23.90;90.20